Flight Track Log - Related Links

Times and Time Zones

All times are in EDT time to prevent confusion due to time zone crossing. See the N789EX flight status page for this flight to view local times or setup timezone preferences in your user account.

Time Position Orientation Groundspeed Altitude Reporting Facility
EDT Latitude Longitude Course Direction KTS MPH feet Rate Location/Type
Fri 07:50:21 PM 47.2247 -119.1936 17° North 234 269 3,800  Level Seattle Center
Fri 07:51:22 PM 47.2861 -119.1656 17° North 234 269 7,100 3,197 Climbing Seattle Center
Fri 07:52:23 PM 47.3592 -119.1567 North 269 310 10,300 2,678 Climbing Seattle Center
Fri 07:53:23 PM 47.3936 -119.2725 294° West 313 360 12,500 1,402 Climbing Seattle Center
Fri 07:59:18 PM 47.6327 -120.2480 289° West 447 514 20,000 1,169 Climbing FlightAware ADS-B
Fri 07:59:48 PM 47.6536 -120.3350 290° West 446 513 20,000  Level FlightAware ADS-B
Fri 08:00:13 PM 47.6706 -120.4059 290° West 448 516 20,000  Level FlightAware ADS-B
Fri 08:00:20 PM 47.6751 -120.4250 290° West 448 516 20,000  Level FlightAware ADS-B
Fri 08:00:50 PM 47.6960 -120.5130 289° West 446 513 20,000  Level FlightAware ADS-B
Fri 08:01:24 PM 47.7196 -120.6120 289° West 443 510 20,000  Level FlightAware ADS-B
Fri 08:01:27 PM 47.7211 -120.6183 289° West 442 509 20,000  Level FlightAware ADS-B
Fri 08:01:55 PM 47.7402 -120.6990 289° West 444 511 20,000  Level FlightAware ADS-B
Fri 08:01:58 PM 47.7414 -120.7044 289° West 444 511 20,000  Level FlightAware ADS-B
Fri 08:02:25 PM 47.7602 -120.7850 289° West 443 510 20,000  Level FlightAware ADS-B
Fri 08:02:33 PM 47.7635 -120.7998 289° West 442 509 20,000 -400 Level FlightAware ADS-B
Fri 08:02:55 PM 47.7801 -120.8720 289° West 423 487 19,800 -882 Descending FlightAware ADS-B
Fri 08:03:07 PM 47.7761 -120.8539 289° West 416 479 19,500 -1,935 Descending FlightAware ADS-B
Fri 08:03:26 PM 47.7989 -120.9530 289° West 411 473 18,800 -2,323 Descending FlightAware ADS-B
Fri 08:03:38 PM 47.8061 -120.9848 289° West 407 468 18,300 -2,400 Descending FlightAware ADS-B
Fri 08:03:56 PM 47.8173 -121.0330 289° West 402 463 17,600 -2,000 Descending FlightAware ADS-B
Fri 08:04:08 PM 47.8240 -121.0615 289° West 399 459 17,300 -2,000 Descending FlightAware ADS-B
Fri 08:04:26 PM 47.8354 -121.1110 289° West 398 458 16,600 -2,400 Descending FlightAware ADS-B
Fri 08:04:38 PM 47.8424 -121.1411 288° West 394 453 16,100 -2,571 Descending FlightAware ADS-B
Fri 08:04:40 PM 47.8438 -121.1480 288° West 393 452 16,000 -2,333 Descending FlightAware ADS-B
Fri 08:04:56 PM 47.8511 -121.1880 283° West 387 445 15,400 -2,063 Descending FlightAware ADS-B
Fri 08:05:12 PM 47.8560 -121.2265 279° West 383 441 14,900 -2,000 Descending FlightAware ADS-B
Fri 08:05:14 PM 47.8568 -121.2340 278° West 383 441 14,800 -2,250 Descending FlightAware ADS-B
Fri 08:05:44 PM 47.8619 -121.3120 275° West 380 437 13,700 -2,200 Descending FlightAware ADS-B
Fri 08:06:14 PM 47.8669 -121.3910 276° West 375 432 12,600 -2,195 Descending FlightAware ADS-B
Fri 08:06:25 PM 47.8664 -121.3831 276° West 375 432 12,200 -1,200 Descending FlightAware ADS-B
Fri 08:06:44 PM 47.8718 -121.4660 275° West 356 410 12,000 -558 Descending FlightAware ADS-B
Fri 08:07:08 PM 47.8752 -121.5206 275° West 332 382 11,800 -600 Descending FlightAware ADS-B
Fri 08:07:14 PM 47.8762 -121.5360 275° West 328 377 11,700 -500 Descending FlightAware ADS-B
Fri 08:07:44 PM 47.8802 -121.6010 275° West 303 349 11,500 -387 Descending FlightAware ADS-B
Fri 08:07:45 PM 47.8802 -121.6022 276° West 302 348 11,500 -750 Level FlightAware ADS-B (CYVR)
Fri 08:08:16 PM 47.8840 -121.6640 275° West 284 327 11,100 -938 Descending FlightAware ADS-B
Fri 08:08:17 PM 47.8840 -121.6655 274° West 284 327 11,000 -1,500 Descending FlightAware ADS-B
Fri 08:08:24 PM 47.8840 -121.6790 268° West 284 327 10,900 -1,200 Descending FlightAware ADS-B
Fri 08:08:27 PM 47.8835 -121.6850 262° West 284 327 10,800 -3,000 Descending FlightAware ADS-B
Fri 08:08:28 PM 47.8835 -121.6850 259° West 283 326 10,700 -2,400 Descending FlightAware ADS-B
Fri 08:08:32 PM 47.8817 -121.6950 253° West 283 326 10,600 -857 Descending FlightAware ADS-B
Fri 08:08:35 PM 47.8815 -121.6963 249° West 283 326 10,600 -1,200 Level FlightAware ADS-B
Fri 08:08:37 PM 47.8796 -121.7040 248° West 283 326 10,500 -1,000 Descending FlightAware ADS-B
Fri 08:08:41 PM 47.8774 -121.7100 243° Southwest 282 325 10,500 -750 Level FlightAware ADS-B
Fri 08:08:45 PM 47.8742 -121.7180 237° Southwest 282 325 10,400 -1,714 Descending FlightAware ADS-B
Fri 08:08:48 PM 47.8742 -121.7177 234° Southwest 281 323 10,300 -2,400 Descending FlightAware ADS-B
Fri 08:08:50 PM 47.8701 -121.7260 230° Southwest 280 322 10,200 -2,000 Descending FlightAware ADS-B
Fri 08:08:51 PM 47.8696 -121.7265 231° Southwest 281 323 10,200 -400 Level FlightAware ADS-B (CYVR)
Fri 08:09:05 PM 47.8566 -121.7470 224° Southwest 283 326 10,100 -316 Descending FlightAware ADS-B
Fri 08:09:10 PM 47.8641 -121.7352 224° Southwest 283 326 10,100  Level FlightAware ADS-B (CYVR)
Fri 08:09:15 PM 47.8476 -121.7590 225° Southwest 282 325 10,100  Level FlightAware ADS-B
Fri 08:09:23 PM 47.8409 -121.7720 235° Southwest 282 325 10,100  Level FlightAware ADS-B
Fri 08:09:28 PM 47.8386 -121.7775 239° Southwest 282 325 10,100 -545 Level FlightAware ADS-B
Fri 08:09:34 PM 47.8335 -121.7900 238° Southwest 284 327 10,000 -1,200 Descending FlightAware ADS-B
Fri 08:09:38 PM 47.8309 -121.7960 235° Southwest 284 327 9,900 -1,714 Descending FlightAware ADS-B
Fri 08:09:41 PM 47.8278 -121.8010 228° Southwest 283 326 9,800 -1,200 Descending FlightAware ADS-B
Fri 08:09:43 PM 47.8263 -121.8036 231° Southwest 284 327 9,800 -2,000 Level FlightAware ADS-B
Fri 08:09:44 PM 47.8249 -121.8050 222° Southwest 283 326 9,700 -2,000 Descending FlightAware ADS-B
Fri 08:09:46 PM 47.8235 -121.8071 216° Southwest 283 326 9,700  Level FlightAware ADS-B
Fri 08:09:48 PM 47.8207 -121.8100 215° Southwest 283 326 9,700 -1,500 Level FlightAware ADS-B
Fri 08:09:58 PM 47.8098 -121.8200 211° Southwest 281 323 9,400 -1,846 Descending FlightAware ADS-B
Fri 08:10:01 PM 47.8070 -121.8227 212° Southwest 282 325 9,300 -1,333 Descending FlightAware ADS-B
Fri 08:10:07 PM 47.7995 -121.8300 214° Southwest 281 323 9,200 -1,385 Descending FlightAware ADS-B
Fri 08:10:14 PM 47.7921 -121.8380 216° Southwest 280 322 9,000 -1,600 Descending FlightAware ADS-B
Fri 08:10:22 PM 47.7840 -121.8470 217° Southwest 280 322 8,800 -1,286 Descending FlightAware ADS-B
Fri 08:10:28 PM 47.7790 -121.8525 219° Southwest 279 321 8,700 -1,091 Descending FlightAware ADS-B
Fri 08:10:33 PM 47.7728 -121.8600 220° Southwest 278 320 8,600 -1,667 Descending FlightAware ADS-B
Fri 08:10:46 PM 47.7610 -121.8747 220° Southwest 278 320 8,200 -1,667 Descending FlightAware ADS-B
Fri 08:10:51 PM 47.7557 -121.8810 218° Southwest 277 319 8,100 -1,333 Descending FlightAware ADS-B
Fri 08:10:55 PM 47.7520 -121.8860 213° Southwest 277 319 8,000 -1,714 Descending FlightAware ADS-B
Fri 08:10:58 PM 47.7482 -121.8880 209° Southwest 277 319 7,900 -1,000 Descending FlightAware ADS-B
Fri 08:11:01 PM 47.7437 -121.8910 202° Southwest 276 318 7,900 -750 Level FlightAware ADS-B
Fri 08:11:06 PM 47.7388 -121.8930 197° South 275 316 7,800 -1,333 Descending FlightAware ADS-B
Fri 08:11:10 PM 47.7329 -121.8950 190° South 275 316 7,700 -1,200 Descending FlightAware ADS-B
Fri 08:11:11 PM 47.7334 -121.8948 189° South 274 315 7,700 -2,000 Level FlightAware ADS-B
Fri 08:11:13 PM 47.7289 -121.8960 189° South 273 314 7,600 -2,250 Descending FlightAware ADS-B
Fri 08:11:27 PM 47.7120 -121.8988 186° South 270 311 7,100 -2,250 Descending FlightAware ADS-B
Fri 08:11:29 PM 47.7095 -121.8990 186° South 270 311 7,000 -1,667 Descending FlightAware ADS-B
Fri 08:11:45 PM 47.6902 -121.9020 186° South 273 314 6,600 -1,667 Descending FlightAware ADS-B
Fri 08:11:47 PM 47.7120 -121.8988 186° South 270 311 6,500 -1,600 Descending FlightAware ADS-B
Fri 08:12:00 PM 47.6712 -121.9050 186° South 266 306 6,200 -1,765 Descending FlightAware ADS-B
Fri 08:12:04 PM 47.7120 -121.8988 186° South 270 311 6,000 -2,800 Descending FlightAware ADS-B
Fri 08:12:15 PM 47.6527 -121.9080 186° South 268 308 5,500 -2,077 Descending FlightAware ADS-B
Fri 08:12:30 PM 47.6337 -121.9100 185° South 272 313 5,100 -800 Descending FlightAware ADS-B
Fri 08:12:45 PM 47.6156 -121.9130 185° South 271 312 5,100  Level FlightAware ADS-B
Fri 08:13:00 PM 47.5963 -121.9150 185° South 271 312 5,100  Level FlightAware ADS-B
Fri 08:13:16 PM 47.5771 -121.9180 185° South 271 312 5,100  Level FlightAware ADS-B
Fri 08:13:30 PM 47.5587 -121.9200 185° South 269 310 5,100  Level FlightAware ADS-B
Fri 08:13:40 PM 47.5473 -121.9220 185° South 267 307 5,100  Level FlightAware ADS-B
Fri 08:13:55 PM 47.5278 -121.9250 185° South 266 306 5,100  Level FlightAware ADS-B
Fri 08:14:11 PM 47.5095 -121.9270 185° South 257 296 5,100  Level FlightAware ADS-B
Fri 08:14:26 PM 47.4923 -121.9290 186° South 241 277 5,100  Level FlightAware ADS-B
Fri 08:14:41 PM 47.4758 -121.9320 186° South 230 265 5,100  Level FlightAware ADS-B
Fri 08:14:53 PM 47.4636 -121.9340 186° South 229 264 5,100  Level FlightAware ADS-B
Fri 08:15:02 PM 47.4535 -121.9350 185° South 230 265 5,100  Level FlightAware ADS-B
Fri 08:15:18 PM 47.4372 -121.9370 185° South 228 262 5,100  Level FlightAware ADS-B
Fri 08:15:28 PM 47.4257 -121.9390 184° South 227 261 5,100  Level FlightAware ADS-B
Fri 08:15:44 PM 47.4097 -121.9400 184° South 228 262 5,100  Level FlightAware ADS-B
Fri 08:15:58 PM 47.3952 -121.9420 185° South 229 264 5,100  Level FlightAware ADS-B
Fri 08:16:07 PM 47.3848 -121.9430 185° South 228 262 5,100  Level FlightAware ADS-B
Fri 08:16:23 PM 47.3688 -121.9450 185° South 230 265 5,100  Level FlightAware ADS-B
Fri 08:16:35 PM 47.3553 -121.9470 186° South 229 264 5,100  Level FlightAware ADS-B
Fri 08:16:42 PM 47.3479 -121.9480 187° South 230 265 5,100  Level FlightAware ADS-B
Fri 08:16:47 PM 47.3431 -121.9490 191° South 228 262 5,100  Level FlightAware ADS-B
Fri 08:16:50 PM 47.3400 -121.9510 196° South 228 262 5,100  Level FlightAware ADS-B
Fri 08:16:53 PM 47.3367 -121.9520 204° Southwest 226 260 5,100  Level FlightAware ADS-B
Fri 08:16:57 PM 47.3332 -121.9550 213° Southwest 224 258 5,100  Level FlightAware ADS-B
Fri 08:17:02 PM 47.3298 -121.9600 221° Southwest 221 254 5,100  Level FlightAware ADS-B
Fri 08:17:05 PM 47.3277 -121.9630 228° Southwest 220 253 5,100  Level FlightAware ADS-B
Fri 08:17:08 PM 47.3257 -121.9670 234° Southwest 220 253 5,100  Level FlightAware ADS-B
Fri 08:17:12 PM 47.3238 -121.9720 243° Southwest 220 253 5,100  Level FlightAware ADS-B
Fri 08:17:15 PM 47.3228 -121.9760 250° West 219 252 5,100  Level FlightAware ADS-B
Fri 08:17:18 PM 47.3218 -121.9810 256° West 218 251 5,100  Level FlightAware ADS-B
Fri 08:17:21 PM 47.3211 -121.9860 259° West 216 249 5,100 -923 Level FlightAware ADS-B
Fri 08:17:31 PM 47.3198 -121.9990 262° West 213 245 4,900 -1,143 Descending FlightAware ADS-B
Fri 08:17:42 PM 47.3185 -122.0160 265° West 213 245 4,700 -1,200 Descending FlightAware ADS-B
Fri 08:17:46 PM 47.3183 -122.0220 267° West 214 246 4,600 -1,500 Descending FlightAware ADS-B
Fri 08:17:50 PM 47.3182 -122.0280 270° West 214 246 4,500 -1,500 Descending FlightAware ADS-B
Fri 08:17:54 PM 47.3183 -122.0330 273° West 213 245 4,400 -857 Descending FlightAware ADS-B
Fri 08:17:57 PM 47.3186 -122.0380 275° West 213 245 4,400 -857 Level FlightAware ADS-B
Fri 08:18:01 PM 47.3191 -122.0420 279° West 212 244 4,300 -750 Descending FlightAware ADS-B
Fri 08:18:05 PM 47.3198 -122.0480 282° West 211 243 4,300 -667 Level FlightAware ADS-B
Fri 08:18:10 PM 47.3213 -122.0560 285° West 210 242 4,200 -1,286 Descending FlightAware ADS-B
Fri 08:18:19 PM 47.3237 -122.0670 289° West 207 238 4,000 -1,250 Descending FlightAware ADS-B
Fri 08:18:34 PM 47.3288 -122.0870 291° West 204 235 3,700 -1,154 Descending FlightAware ADS-B
Fri 08:18:45 PM 47.3326 -122.1020 292° West 204 235 3,500 -947 Descending FlightAware ADS-B
Fri 08:18:53 PM 47.3356 -122.1120 292° West 204 235 3,400 -667 Descending FlightAware ADS-B
Fri 08:19:03 PM 47.3394 -122.1250 295° West 206 237 3,300 -1,000 Descending FlightAware ADS-B
Fri 08:19:11 PM 47.3422 -122.1340 295° West 206 237 3,100 -1,200 Descending FlightAware ADS-B
Fri 08:19:18 PM 47.3452 -122.1430 297° West 206 237 3,000 -1,200 Descending FlightAware ADS-B
Fri 08:19:21 PM 47.3466 -122.1460 301° West 206 237 2,900 -857 Descending FlightAware ADS-B
Fri 08:19:25 PM 47.3489 -122.1510 310° West 206 237 2,900  Level FlightAware ADS-B
Fri 08:19:30 PM 47.3526 -122.1560 323° Northwest 206 237 2,900  Level FlightAware ADS-B
Fri 08:19:34 PM 47.3557 -122.1580 330° Northwest 204 235 2,900 -429 Level FlightAware ADS-B
Fri 08:19:44 PM 47.3640 -122.1650 332° Northwest 202 232 2,800 -667 Descending FlightAware ADS-B
Fri 08:19:52 PM 47.3711 -122.1700 332° Northwest 202 232 2,700  Descending FlightAware ADS-B
Fri 08:20:01 PM 47.3779 -122.1760 332° Northwest 193 222 2,800 333 Climbing FlightAware ADS-B
Fri 08:20:10 PM 47.3854 -122.1810 332° Northwest 186 214 2,800 -240 Level FlightAware ADS-B
Fri 08:20:26 PM 47.3968 -122.1900 332° Northwest 183 211 2,700 -387 Descending FlightAware ADS-B
Fri 08:20:41 PM 47.4078 -122.1990 331° Northwest 176 203 2,600 -667 Descending FlightAware ADS-B
Fri 08:20:53 PM 47.4164 -122.2070 330° Northwest 165 190 2,400 -692 Descending FlightAware ADS-B
Fri 08:21:07 PM 47.4256 -122.2140 330° Northwest 160 184 2,300 -500 Descending FlightAware ADS-B
Fri 08:21:17 PM 47.4315 -122.2190 331° Northwest 157 181 2,200 -571 Descending FlightAware ADS-B
Fri 08:21:28 PM 47.4387 -122.2250 330° Northwest 156 180 2,100 -600 Descending FlightAware ADS-B
Fri 08:21:37 PM 47.4441 -122.2300 330° Northwest 157 181 2,000 -960 Descending FlightAware ADS-B
Fri 08:21:53 PM 47.4539 -122.2380 330° Northwest 147 169 1,700 -1,111 Descending FlightAware ADS-B
Fri 08:22:04 PM 47.4604 -122.2440 330° Northwest 145 167 1,500 -947 Descending FlightAware ADS-B
Fri 08:22:12 PM 47.4653 -122.2480 330° Northwest 147 169 1,400 -667 Descending FlightAware ADS-B
Fri 08:22:22 PM 47.4709 -122.2530 331° Northwest 147 169 1,300 -889 Descending FlightAware ADS-B
Fri 08:22:39 PM 47.4809 -122.2610 331° Northwest 143 165 1,000 -889 Descending FlightAware ADS-B
Fri 08:22:49 PM 47.4865 -122.2660 330° Northwest 141 162 900 -740 Descending FlightAware ADS-B
Fri 08:23:52 PM 47.5156 -122.2900 330° Northwest 141 162 100 -762 Descending Seattle Center

Login

Don't have an account? Register now (free) for customized features, flight alerts, and more!